Телегино

Карта отелей и гостиниц, располагающихся рядом с аэропортом Телегино :

Телегино
Елец
Липецкая область 52° 38' 23.3988" N, 38° 24' 29.9988" E
Код аэродрома ИКАО
ZC90
Код аэродрома RU
ЗЦ90
Координаты
N52.63983° E038.40833°
Превышение над уровнем моря
220
Основная полоса
12/30
Курс магнитный
117/297
Длина основной ВПП
1260
Ширина основной ВПП
50
Покрытие основной ВПП
Нетвёрдое (грунт)
Освещение ВПП
Нет
Тип: 
Аэродром
Класс аэродрома: 
Принадлежность: 
АОН
Статус: 
Действующий
Сайт: 
http://www.2mak.ru/contacts
E-mail аэродрома: 
airo-48@mail.ru
Страна: 
Россия
Регион: 
Липецкая область
Город: 
Елец
Дополнительная информация: 
Оператор: ГП "2-й МАК". Нкр.=(300)м. Специализация: полёты с переменным профилем на планёрах и самолётах-буксировщиках в радиусе 10 км от КТА. Вход в круг строго по согласованию с РП, так как возможна смена рабочего старта, который разбивается в любом направлении в зависимости от ветра. Безусловный приоритет в районе а/д имеют безмоторные ВС (планёры). При подходе усиливать осмотрительность и радиоосмотрительность.

Найти трансфер

С помощью этой формы Вы можете найти трансфер из аэропорта Телегино в город, аэропорт или вокзал:

Карта места

Javascript is required to view this map.

Погода в аэропортах:

Авиационная погода в Курске

Погода METAR: 
UUOK 171530Z 08004MPS 9999 -RA NSC 10/08 Q1015 R12/290050 NOSIG RMK QFE743/0991
Время наблюдения
2021-09-17T15:30:00Z
Температура C
10.0
Точка росы
8.0
Направление ветра
80
Скорость ветра (узлы)
8
Метео видимость
6.21
Явления погоды
-RA
Условия полета
VFR
Аэропорт подробнее: 

Авиационная погода в Тбилиси

Регион: 
Погода METAR: 
UGTB 171530Z 33017KT 9999 -SHRA SCT055CB 18/15 Q1015 R31L/19//60 NOSIG
Время наблюдения
2021-09-17T15:30:00Z
Температура C
18.0
Точка росы
15.0
Направление ветра
330
Скорость ветра (узлы)
17
Метео видимость
6.21
Явления погоды
-SHRA
Условия полета
VFR

Авиационная погода в Брянске

Регион: 
Погода METAR: 
UUBP 171530Z AUTO 06004MPS 9000 -RA 07/07 Q1015 RMK QFE744/0992
Время наблюдения
2021-09-17T15:30:00Z
Температура C
7.0
Точка росы
7.0
Направление ветра
60
Скорость ветра (узлы)
8
Метео видимость
5.59
Явления погоды
-RA
Условия полета
Аэропорт подробнее: 

Авиационная погода в Емельяново

Регион: 
Погода METAR: 
UNKL 171530Z VRB01MPS 1400 1200W BR NSC 09/09 Q1007 R29/CLRD65 NOSIG RMK QFE730
Время наблюдения
2021-09-17T15:30:00Z
Температура C
9.0
Точка росы
9.0
Направление ветра
0
Скорость ветра (узлы)
2
Метео видимость
0.87
Явления погоды
BR
Условия полета
LIFR
Аэропорт подробнее: